Y94 weather

East Jordan City Airport
East Jordan, Michigan, United States

Public forecast

Using degrees Fahrenheit for public forecast. Weather courtesy of forecast.io.

Closest aviation weather report (METAR) to East Jordan City Airport

Closest report is Antrim County Airport, 9.3 nm (17.3 km) SSW. Retrieved 2019/10/16 03:36 UTC (30 seconds ago):

KACB 160336Z AUTO 00000KT 7SM BKN013 OVC017 09/08 A2963 RMK AO2 T00920080

Closest aviation forecast (TAF) to East Jordan City Airport

Closest forecast is Pellston Regional Airport of Emmet County Airport, 29.5 nm (54.7 km) NNE. Retrieved 2019-10-16 00:24 UTC (3 hours ago):

TAF KPLN 152322Z 1600/1624 09008KT P6SM -SHRA OVC050 FM160100 09009KT 4SM -SHRA BR OVC030 FM160200 09010KT 5SM -SHRA BR OVC017 FM160400 08009KT 4SM -SHRA BR OVC007 FM161200 34009KT 3SM -SHRA BR OVC007 FM161800 34016G29KT 3SM -SHRA OVC009 FM162200 34017G29KT 6SM -SHRA OVC015